Centerbrook, Connecticut
Current Conditions -  °F | °C
As of 5:55 PM on Wednesday 26 Nov 2014 (Local Time) from KSNC Reporting Station
Unknown Precip Unknown Precip  
Wind Chill: 27°   Ceiling: 1300
Heat Index: 36°   Visibility: 3mi
Dew Point: 34°   Wind: 14mph
Humidity: 93%   Direction: 30°NNE
Pressure: 29.72"   Gusts: 23mph
Location:  41.35°N, 72.42°W
Report Text: KSNC 262255Z AUTO 03012G20KT 3SM UP FEW001 SCT008 OVC013 02/01 A2972 RMK AO2 P0030
Loading
Personal Weather Stations






























Interactive Weather Map New forecast layout! Learn more

10-Day Weather Forecast

Advertisements
Track Severe Weather on mobile